sensor_id;sensor_type;location;lat;lon;timestamp;P1;durP1;ratioP1;P2;durP2;ratioP2
65879;SDS011;52661;51.364;6.054;2023-09-12T00:00:03;16.73;;;6.97;;
65879;SDS011;52661;51.364;6.054;2023-09-12T00:04:55;17.40;;;7.10;;
65879;SDS011;52661;51.364;6.054;2023-09-12T00:07:21;13.77;;;7.03;;
65879;SDS011;52661;51.364;6.054;2023-09-12T00:09:46;14.23;;;6.40;;
65879;SDS011;52661;51.364;6.054;2023-09-12T00:12:15;11.68;;;5.38;;
65879;SDS011;52661;51.364;6.054;2023-09-12T00:14:41;15.98;;;7.03;;
65879;SDS011;52661;51.364;6.054;2023-09-12T00:17:06;18.05;;;8.15;;
65879;SDS011;52661;51.364;6.054;2023-09-12T00:19:32;14.65;;;6.57;;
65879;SDS011;52661;51.364;6.054;2023-09-12T00:21:58;14.43;;;5.68;;
65879;SDS011;52661;51.364;6.054;2023-09-12T00:24:23;18.77;;;6.22;;
65879;SDS011;52661;51.364;6.054;2023-09-12T00:26:48;13.45;;;6.53;;
65879;SDS011;52661;51.364;6.054;2023-09-12T00:29:14;11.02;;;6.45;;
65879;SDS011;52661;51.364;6.054;2023-09-12T00:31:39;18.38;;;6.70;;
65879;SDS011;52661;51.364;6.054;2023-09-12T00:34:04;13.93;;;6.93;;
65879;SDS011;52661;51.364;6.054;2023-09-12T00:36:30;13.47;;;6.80;;
65879;SDS011;52661;51.364;6.054;2023-09-12T00:38:56;16.77;;;7.07;;
65879;SDS011;52661;51.364;6.054;2023-09-12T00:41:22;14.18;;;6.57;;
65879;SDS011;52661;51.364;6.054;2023-09-12T00:43:47;15.20;;;6.78;;
65879;SDS011;52661;51.364;6.054;2023-09-12T00:46:18;14.07;;;6.65;;
65879;SDS011;52661;51.364;6.054;2023-09-12T00:48:44;13.43;;;6.18;;
65879;SDS011;52661;51.364;6.054;2023-09-12T00:51:11;14.55;;;6.88;;
65879;SDS011;52661;51.364;6.054;2023-09-12T00:53:38;13.73;;;5.90;;
65879;SDS011;52661;51.364;6.054;2023-09-12T00:56:03;12.48;;;6.10;;
65879;SDS011;52661;51.364;6.054;2023-09-12T00:58:29;15.63;;;6.10;;
65879;SDS011;52661;51.364;6.054;2023-09-12T01:00:55;12.23;;;5.75;;
65879;SDS011;52661;51.364;6.054;2023-09-12T01:03:21;15.93;;;7.07;;
65879;SDS011;52661;51.364;6.054;2023-09-12T01:05:46;18.17;;;5.93;;
65879;SDS011;52661;51.364;6.054;2023-09-12T01:08:12;13.70;;;5.95;;
65879;SDS011;52661;51.364;6.054;2023-09-12T01:10:38;14.82;;;6.38;;
65879;SDS011;52661;51.364;6.054;2023-09-12T01:13:03;12.25;;;6.00;;
65879;SDS011;52661;51.364;6.054;2023-09-12T01:15:28;15.43;;;7.07;;
65879;SDS011;52661;51.364;6.054;2023-09-12T01:17:54;14.20;;;6.85;;
65879;SDS011;52661;51.364;6.054;2023-09-12T01:20:27;16.23;;;7.35;;
65879;SDS011;52661;51.364;6.054;2023-09-12T01:28:24;12.70;;;6.53;;
65879;SDS011;52661;51.364;6.054;2023-09-12T01:30:54;14.07;;;6.82;;
65879;SDS011;52661;51.364;6.054;2023-09-12T01:33:20;18.15;;;8.10;;
65879;SDS011;52661;51.364;6.054;2023-09-12T01:35:46;13.35;;;6.60;;
65879;SDS011;52661;51.364;6.054;2023-09-12T01:38:12;13.43;;;8.50;;
65879;SDS011;52661;51.364;6.054;2023-09-12T01:40:46;15.35;;;6.78;;
65879;SDS011;52661;51.364;6.054;2023-09-12T01:43:15;17.63;;;7.25;;
65879;SDS011;52661;51.364;6.054;2023-09-12T01:45:41;14.02;;;6.55;;
65879;SDS011;52661;51.364;6.054;2023-09-12T01:48:08;16.00;;;7.65;;
65879;SDS011;52661;51.364;6.054;2023-09-12T01:50:33;17.00;;;7.80;;
65879;SDS011;52661;51.364;6.054;2023-09-12T01:53:01;14.35;;;7.57;;
65879;SDS011;52661;51.364;6.054;2023-09-12T01:55:27;15.63;;;7.78;;
65879;SDS011;52661;51.364;6.054;2023-09-12T01:57:52;17.70;;;7.45;;
65879;SDS011;52661;51.364;6.054;2023-09-12T02:00:18;14.85;;;7.00;;
65879;SDS011;52661;51.364;6.054;2023-09-12T02:02:44;15.20;;;8.13;;
65879;SDS011;52661;51.364;6.054;2023-09-12T02:05:20;13.77;;;6.93;;
65879;SDS011;52661;51.364;6.054;2023-09-12T02:07:47;14.60;;;6.93;;
65879;SDS011;52661;51.364;6.054;2023-09-12T02:10:13;15.18;;;7.35;;
65879;SDS011;52661;51.364;6.054;2023-09-12T02:12:39;14.30;;;7.50;;
65879;SDS011;52661;51.364;6.054;2023-09-12T02:15:05;14.88;;;6.93;;
65879;SDS011;52661;51.364;6.054;2023-09-12T02:17:31;17.08;;;7.78;;
65879;SDS011;52661;51.364;6.054;2023-09-12T02:19:56;15.90;;;6.93;;
65879;SDS011;52661;51.364;6.054;2023-09-12T02:22:22;14.07;;;7.15;;
65879;SDS011;52661;51.364;6.054;2023-09-12T02:24:47;13.63;;;7.35;;
65879;SDS011;52661;51.364;6.054;2023-09-12T02:27:13;13.82;;;6.57;;
65879;SDS011;52661;51.364;6.054;2023-09-12T02:29:38;14.40;;;7.23;;
65879;SDS011;52661;51.364;6.054;2023-09-12T02:32:04;15.52;;;6.65;;
65879;SDS011;52661;51.364;6.054;2023-09-12T02:34:30;15.52;;;7.15;;
65879;SDS011;52661;51.364;6.054;2023-09-12T02:36:55;16.83;;;7.63;;
65879;SDS011;52661;51.364;6.054;2023-09-12T02:39:21;13.93;;;6.72;;
65879;SDS011;52661;51.364;6.054;2023-09-12T02:41:46;16.08;;;7.22;;
65879;SDS011;52661;51.364;6.054;2023-09-12T02:44:11;14.07;;;6.50;;
65879;SDS011;52661;51.364;6.054;2023-09-12T02:46:37;13.43;;;7.80;;
65879;SDS011;52661;51.364;6.054;2023-09-12T02:49:03;14.80;;;6.55;;
65879;SDS011;52661;51.364;6.054;2023-09-12T02:51:28;18.00;;;7.35;;
65879;SDS011;52661;51.364;6.054;2023-09-12T02:53:54;17.50;;;6.82;;
65879;SDS011;52661;51.364;6.054;2023-09-12T02:56:20;14.27;;;6.15;;
65879;SDS011;52661;51.364;6.054;2023-09-12T02:58:46;15.85;;;6.78;;
65879;SDS011;52661;51.364;6.054;2023-09-12T03:01:15;12.32;;;6.68;;
65879;SDS011;52661;51.364;6.054;2023-09-12T03:03:41;15.23;;;6.97;;
65879;SDS011;52661;51.364;6.054;2023-09-12T03:06:06;14.63;;;6.60;;
65879;SDS011;52661;51.364;6.054;2023-09-12T03:08:32;17.10;;;6.30;;
65879;SDS011;52661;51.364;6.054;2023-09-12T03:10:57;14.13;;;6.40;;
65879;SDS011;52661;51.364;6.054;2023-09-12T03:13:24;13.05;;;6.40;;
65879;SDS011;52661;51.364;6.054;2023-09-12T03:15:50;16.65;;;6.85;;
65879;SDS011;52661;51.364;6.054;2023-09-12T03:18:16;16.70;;;7.18;;
65879;SDS011;52661;51.364;6.054;2023-09-12T03:20:41;17.77;;;6.80;;
65879;SDS011;52661;51.364;6.054;2023-09-12T03:23:06;13.65;;;6.88;;
65879;SDS011;52661;51.364;6.054;2023-09-12T03:25:38;13.95;;;6.88;;
65879;SDS011;52661;51.364;6.054;2023-09-12T03:28:04;15.73;;;8.00;;
65879;SDS011;52661;51.364;6.054;2023-09-12T03:30:34;15.77;;;6.82;;
65879;SDS011;52661;51.364;6.054;2023-09-12T03:33:00;14.10;;;6.70;;
65879;SDS011;52661;51.364;6.054;2023-09-12T03:37:51;17.98;;;6.95;;
65879;SDS011;52661;51.364;6.054;2023-09-12T03:40:16;15.07;;;7.50;;
65879;SDS011;52661;51.364;6.054;2023-09-12T03:42:42;13.75;;;7.07;;
65879;SDS011;52661;51.364;6.054;2023-09-12T03:45:07;17.43;;;8.27;;
65879;SDS011;52661;51.364;6.054;2023-09-12T03:47:33;14.95;;;6.97;;
65879;SDS011;52661;51.364;6.054;2023-09-12T03:49:59;15.98;;;6.20;;
65879;SDS011;52661;51.364;6.054;2023-09-12T03:52:24;14.00;;;7.50;;
65879;SDS011;52661;51.364;6.054;2023-09-12T03:54:49;15.52;;;6.93;;
65879;SDS011;52661;51.364;6.054;2023-09-12T03:57:15;15.00;;;6.28;;
65879;SDS011;52661;51.364;6.054;2023-09-12T03:59:41;15.02;;;6.68;;
65879;SDS011;52661;51.364;6.054;2023-09-12T04:02:06;16.70;;;7.40;;
65879;SDS011;52661;51.364;6.054;2023-09-12T04:04:31;15.10;;;7.00;;
65879;SDS011;52661;51.364;6.054;2023-09-12T04:06:57;12.88;;;6.45;;
65879;SDS011;52661;51.364;6.054;2023-09-12T04:09:22;13.20;;;6.68;;
65879;SDS011;52661;51.364;6.054;2023-09-12T04:11:47;16.98;;;7.53;;
65879;SDS011;52661;51.364;6.054;2023-09-12T04:14:16;17.57;;;6.70;;
65879;SDS011;52661;51.364;6.054;2023-09-12T04:16:41;18.25;;;7.10;;
65879;SDS011;52661;51.364;6.054;2023-09-12T04:19:06;15.93;;;7.65;;
65879;SDS011;52661;51.364;6.054;2023-09-12T04:21:32;16.20;;;7.18;;
65879;SDS011;52661;51.364;6.054;2023-09-12T04:23:57;16.13;;;7.13;;
65879;SDS011;52661;51.364;6.054;2023-09-12T04:26:22;14.32;;;6.82;;
65879;SDS011;52661;51.364;6.054;2023-09-12T04:28:48;17.83;;;8.27;;
65879;SDS011;52661;51.364;6.054;2023-09-12T04:31:13;16.80;;;6.93;;
65879;SDS011;52661;51.364;6.054;2023-09-12T04:33:39;15.40;;;7.72;;
65879;SDS011;52661;51.364;6.054;2023-09-12T04:36:04;16.58;;;7.07;;
65879;SDS011;52661;51.364;6.054;2023-09-12T04:38:30;16.90;;;7.28;;
65879;SDS011;52661;51.364;6.054;2023-09-12T04:40:56;17.58;;;7.28;;
65879;SDS011;52661;51.364;6.054;2023-09-12T04:43:22;15.88;;;7.88;;
65879;SDS011;52661;51.364;6.054;2023-09-12T04:45:48;18.23;;;7.35;;
65879;SDS011;52661;51.364;6.054;2023-09-12T04:48:14;17.58;;;7.55;;
65879;SDS011;52661;51.364;6.054;2023-09-12T04:50:42;19.70;;;8.75;;
65879;SDS011;52661;51.364;6.054;2023-09-12T04:53:08;15.98;;;7.97;;
65879;SDS011;52661;51.364;6.054;2023-09-12T04:55:37;18.58;;;8.15;;
65879;SDS011;52661;51.364;6.054;2023-09-12T04:58:03;16.58;;;7.38;;
65879;SDS011;52661;51.364;6.054;2023-09-12T05:00:29;16.10;;;8.30;;
65879;SDS011;52661;51.364;6.054;2023-09-12T05:02:55;15.98;;;7.70;;
65879;SDS011;52661;51.364;6.054;2023-09-12T05:05:20;19.33;;;8.40;;
65879;SDS011;52661;51.364;6.054;2023-09-12T05:07:45;17.25;;;8.18;;
65879;SDS011;52661;51.364;6.054;2023-09-12T05:10:11;17.02;;;7.78;;
65879;SDS011;52661;51.364;6.054;2023-09-12T05:12:36;18.98;;;8.52;;
65879;SDS011;52661;51.364;6.054;2023-09-12T05:15:02;18.67;;;8.63;;
65879;SDS011;52661;51.364;6.054;2023-09-12T05:17:27;18.13;;;8.13;;
65879;SDS011;52661;51.364;6.054;2023-09-12T05:19:53;19.50;;;8.43;;
65879;SDS011;52661;51.364;6.054;2023-09-12T05:22:18;19.73;;;8.15;;
65879;SDS011;52661;51.364;6.054;2023-09-12T05:24:45;21.17;;;9.02;;
65879;SDS011;52661;51.364;6.054;2023-09-12T05:27:11;22.02;;;9.60;;
65879;SDS011;52661;51.364;6.054;2023-09-12T05:29:36;19.90;;;8.65;;
65879;SDS011;52661;51.364;6.054;2023-09-12T05:32:02;18.27;;;8.45;;
65879;SDS011;52661;51.364;6.054;2023-09-12T05:34:28;18.67;;;7.95;;
65879;SDS011;52661;51.364;6.054;2023-09-12T05:36:53;18.15;;;8.63;;
65879;SDS011;52661;51.364;6.054;2023-09-12T05:39:19;17.77;;;7.80;;
65879;SDS011;52661;51.364;6.054;2023-09-12T05:41:44;18.52;;;9.55;;
65879;SDS011;52661;51.364;6.054;2023-09-12T05:44:10;17.20;;;8.07;;
65879;SDS011;52661;51.364;6.054;2023-09-12T05:46:38;18.65;;;8.95;;
65879;SDS011;52661;51.364;6.054;2023-09-12T05:49:03;20.48;;;8.60;;
65879;SDS011;52661;51.364;6.054;2023-09-12T05:51:29;20.08;;;8.48;;
65879;SDS011;52661;51.364;6.054;2023-09-12T05:53:54;19.42;;;8.95;;
65879;SDS011;52661;51.364;6.054;2023-09-12T05:56:20;18.58;;;8.50;;
65879;SDS011;52661;51.364;6.054;2023-09-12T05:58:46;22.73;;;8.82;;
65879;SDS011;52661;51.364;6.054;2023-09-12T06:01:11;18.02;;;8.77;;
65879;SDS011;52661;51.364;6.054;2023-09-12T06:03:37;24.08;;;9.90;;
65879;SDS011;52661;51.364;6.054;2023-09-12T06:06:02;22.95;;;9.35;;
65879;SDS011;52661;51.364;6.054;2023-09-12T06:08:28;22.95;;;9.60;;
65879;SDS011;52661;51.364;6.054;2023-09-12T06:10:54;22.05;;;10.00;;
65879;SDS011;52661;51.364;6.054;2023-09-12T06:13:20;21.88;;;10.38;;
65879;SDS011;52661;51.364;6.054;2023-09-12T06:15:45;22.83;;;9.93;;
65879;SDS011;52661;51.364;6.054;2023-09-12T06:18:11;20.55;;;8.98;;
65879;SDS011;52661;51.364;6.054;2023-09-12T06:20:36;24.23;;;9.60;;
65879;SDS011;52661;51.364;6.054;2023-09-12T06:23:03;23.63;;;8.95;;
65879;SDS011;52661;51.364;6.054;2023-09-12T06:25:28;22.65;;;9.07;;
65879;SDS011;52661;51.364;6.054;2023-09-12T06:27:54;22.67;;;9.40;;
65879;SDS011;52661;51.364;6.054;2023-09-12T06:30:20;20.63;;;9.57;;
65879;SDS011;52661;51.364;6.054;2023-09-12T06:32:45;19.65;;;9.63;;
65879;SDS011;52661;51.364;6.054;2023-09-12T06:35:11;19.85;;;8.63;;
65879;SDS011;52661;51.364;6.054;2023-09-12T06:37:39;22.85;;;8.90;;
65879;SDS011;52661;51.364;6.054;2023-09-12T06:40:05;20.10;;;9.95;;
65879;SDS011;52661;51.364;6.054;2023-09-12T06:42:32;19.38;;;9.43;;
65879;SDS011;52661;51.364;6.054;2023-09-12T06:44:57;23.88;;;10.07;;
65879;SDS011;52661;51.364;6.054;2023-09-12T06:47:22;22.35;;;9.60;;
65879;SDS011;52661;51.364;6.054;2023-09-12T06:49:48;24.23;;;9.95;;
65879;SDS011;52661;51.364;6.054;2023-09-12T06:52:13;20.75;;;9.38;;
65879;SDS011;52661;51.364;6.054;2023-09-12T06:54:39;19.33;;;9.73;;
65879;SDS011;52661;51.364;6.054;2023-09-12T06:57:04;20.13;;;9.35;;
65879;SDS011;52661;51.364;6.054;2023-09-12T06:59:29;18.65;;;9.20;;
65879;SDS011;52661;51.364;6.054;2023-09-12T07:01:55;18.85;;;8.85;;
65879;SDS011;52661;51.364;6.054;2023-09-12T07:04:21;16.63;;;8.98;;
65879;SDS011;52661;51.364;6.054;2023-09-12T07:06:46;20.75;;;8.60;;
65879;SDS011;52661;51.364;6.054;2023-09-12T07:09:12;20.67;;;9.43;;
65879;SDS011;52661;51.364;6.054;2023-09-12T07:11:39;19.05;;;9.32;;
65879;SDS011;52661;51.364;6.054;2023-09-12T07:14:08;20.02;;;9.60;;
65879;SDS011;52661;51.364;6.054;2023-09-12T07:16:36;25.17;;;10.27;;
65879;SDS011;52661;51.364;6.054;2023-09-12T07:19:01;20.33;;;8.43;;
65879;SDS011;52661;51.364;6.054;2023-09-12T07:21:28;22.23;;;10.25;;
65879;SDS011;52661;51.364;6.054;2023-09-12T07:23:54;21.38;;;9.43;;
65879;SDS011;52661;51.364;6.054;2023-09-12T07:26:20;19.67;;;9.13;;
65879;SDS011;52661;51.364;6.054;2023-09-12T07:28:45;20.23;;;9.10;;
65879;SDS011;52661;51.364;6.054;2023-09-12T07:31:11;21.23;;;10.90;;
65879;SDS011;52661;51.364;6.054;2023-09-12T07:33:36;23.75;;;11.27;;
65879;SDS011;52661;51.364;6.054;2023-09-12T07:36:01;24.50;;;10.68;;
65879;SDS011;52661;51.364;6.054;2023-09-12T07:38:28;24.15;;;11.00;;
65879;SDS011;52661;51.364;6.054;2023-09-12T07:40:55;26.30;;;11.15;;
65879;SDS011;52661;51.364;6.054;2023-09-12T07:43:21;22.58;;;10.70;;
65879;SDS011;52661;51.364;6.054;2023-09-12T07:45:46;21.05;;;10.18;;
65879;SDS011;52661;51.364;6.054;2023-09-12T07:48:14;23.75;;;11.20;;
65879;SDS011;52661;51.364;6.054;2023-09-12T07:50:40;25.75;;;11.93;;
65879;SDS011;52661;51.364;6.054;2023-09-12T07:53:05;24.50;;;11.10;;
65879;SDS011;52661;51.364;6.054;2023-09-12T07:55:31;27.70;;;13.23;;
65879;SDS011;52661;51.364;6.054;2023-09-12T07:58:01;25.40;;;13.30;;
65879;SDS011;52661;51.364;6.054;2023-09-12T08:00:29;27.50;;;12.73;;
65879;SDS011;52661;51.364;6.054;2023-09-12T08:02:55;26.42;;;12.02;;
65879;SDS011;52661;51.364;6.054;2023-09-12T08:05:20;27.33;;;13.00;;
65879;SDS011;52661;51.364;6.054;2023-09-12T08:07:46;32.00;;;13.77;;
65879;SDS011;52661;51.364;6.054;2023-09-12T08:10:11;30.00;;;13.90;;
65879;SDS011;52661;51.364;6.054;2023-09-12T08:12:36;31.93;;;13.70;;
65879;SDS011;52661;51.364;6.054;2023-09-12T08:15:03;31.13;;;14.35;;
65879;SDS011;52661;51.364;6.054;2023-09-12T08:17:29;31.92;;;13.68;;
65879;SDS011;52661;51.364;6.054;2023-09-12T08:19:55;36.75;;;14.50;;
65879;SDS011;52661;51.364;6.054;2023-09-12T08:22:20;34.85;;;15.52;;
65879;SDS011;52661;51.364;6.054;2023-09-12T08:24:46;30.17;;;14.95;;
65879;SDS011;52661;51.364;6.054;2023-09-12T08:27:11;32.20;;;14.52;;
65879;SDS011;52661;51.364;6.054;2023-09-12T08:29:37;30.45;;;14.40;;
65879;SDS011;52661;51.364;6.054;2023-09-12T08:32:03;30.15;;;14.43;;
65879;SDS011;52661;51.364;6.054;2023-09-12T08:34:29;34.97;;;15.40;;
65879;SDS011;52661;51.364;6.054;2023-09-12T08:36:54;30.65;;;15.07;;
65879;SDS011;52661;51.364;6.054;2023-09-12T08:39:23;33.00;;;15.38;;
65879;SDS011;52661;51.364;6.054;2023-09-12T08:41:50;33.45;;;15.90;;
65879;SDS011;52661;51.364;6.054;2023-09-12T08:44:17;32.35;;;15.05;;
65879;SDS011;52661;51.364;6.054;2023-09-12T08:46:43;29.42;;;14.15;;
65879;SDS011;52661;51.364;6.054;2023-09-12T08:49:09;32.83;;;15.48;;
65879;SDS011;52661;51.364;6.054;2023-09-12T08:51:37;30.63;;;14.13;;
65879;SDS011;52661;51.364;6.054;2023-09-12T08:54:03;29.63;;;13.95;;
65879;SDS011;52661;51.364;6.054;2023-09-12T08:56:35;30.90;;;14.20;;
65879;SDS011;52661;51.364;6.054;2023-09-12T08:59:04;31.40;;;14.63;;
65879;SDS011;52661;51.364;6.054;2023-09-12T09:01:30;34.40;;;15.82;;
65879;SDS011;52661;51.364;6.054;2023-09-12T09:03:57;31.05;;;15.13;;
65879;SDS011;52661;51.364;6.054;2023-09-12T09:06:23;32.45;;;14.27;;
65879;SDS011;52661;51.364;6.054;2023-09-12T09:08:50;30.83;;;14.82;;
65879;SDS011;52661;51.364;6.054;2023-09-12T09:11:16;29.17;;;14.93;;
65879;SDS011;52661;51.364;6.054;2023-09-12T09:13:42;31.17;;;14.65;;
65879;SDS011;52661;51.364;6.054;2023-09-12T09:18:49;31.95;;;14.85;;
65879;SDS011;52661;51.364;6.054;2023-09-12T09:21:18;27.75;;;13.15;;
65879;SDS011;52661;51.364;6.054;2023-09-12T09:23:46;23.35;;;11.38;;
65879;SDS011;52661;51.364;6.054;2023-09-12T09:26:12;22.00;;;10.27;;
65879;SDS011;52661;51.364;6.054;2023-09-12T09:28:38;30.88;;;13.40;;
65879;SDS011;52661;51.364;6.054;2023-09-12T09:31:04;24.30;;;10.88;;
65879;SDS011;52661;51.364;6.054;2023-09-12T09:33:35;37.03;;;15.38;;
65879;SDS011;52661;51.364;6.054;2023-09-12T09:36:02;30.70;;;16.02;;
65879;SDS011;52661;51.364;6.054;2023-09-12T09:38:29;35.10;;;15.05;;
65879;SDS011;52661;51.364;6.054;2023-09-12T09:40:54;28.02;;;13.05;;
65879;SDS011;52661;51.364;6.054;2023-09-12T09:43:20;27.33;;;13.63;;
65879;SDS011;52661;51.364;6.054;2023-09-12T09:45:46;28.83;;;13.98;;
65879;SDS011;52661;51.364;6.054;2023-09-12T09:48:22;24.50;;;12.25;;
65879;SDS011;52661;51.364;6.054;2023-09-12T09:50:49;25.40;;;11.75;;
65879;SDS011;52661;51.364;6.054;2023-09-12T09:53:14;26.80;;;11.25;;
65879;SDS011;52661;51.364;6.054;2023-09-12T09:55:40;25.73;;;11.65;;
65879;SDS011;52661;51.364;6.054;2023-09-12T09:58:07;27.77;;;13.65;;
65879;SDS011;52661;51.364;6.054;2023-09-12T10:00:36;28.60;;;13.45;;
65879;SDS011;52661;51.364;6.054;2023-09-12T10:03:05;30.42;;;16.08;;
65879;SDS011;52661;51.364;6.054;2023-09-12T10:05:31;26.92;;;12.57;;
65879;SDS011;52661;51.364;6.054;2023-09-12T10:07:58;27.50;;;12.85;;
65879;SDS011;52661;51.364;6.054;2023-09-12T10:10:27;25.90;;;12.57;;
65879;SDS011;52661;51.364;6.054;2023-09-12T10:12:58;24.67;;;10.30;;
65879;SDS011;52661;51.364;6.054;2023-09-12T10:15:26;25.50;;;12.07;;
65879;SDS011;52661;51.364;6.054;2023-09-12T10:17:58;22.77;;;11.82;;
65879;SDS011;52661;51.364;6.054;2023-09-12T10:20:32;25.60;;;13.98;;
65879;SDS011;52661;51.364;6.054;2023-09-12T10:23:05;27.83;;;13.85;;
65879;SDS011;52661;51.364;6.054;2023-09-12T10:25:36;28.80;;;13.75;;
65879;SDS011;52661;51.364;6.054;2023-09-12T10:28:03;27.17;;;13.63;;
65879;SDS011;52661;51.364;6.054;2023-09-12T10:30:30;26.65;;;12.80;;
65879;SDS011;52661;51.364;6.054;2023-09-12T10:32:56;25.35;;;13.57;;
65879;SDS011;52661;51.364;6.054;2023-09-12T10:35:22;28.15;;;14.02;;
65879;SDS011;52661;51.364;6.054;2023-09-12T10:37:48;28.58;;;13.68;;
65879;SDS011;52661;51.364;6.054;2023-09-12T10:40:16;25.10;;;11.43;;
65879;SDS011;52661;51.364;6.054;2023-09-12T10:42:42;26.40;;;13.65;;
65879;SDS011;52661;51.364;6.054;2023-09-12T10:45:09;27.40;;;13.07;;
65879;SDS011;52661;51.364;6.054;2023-09-12T10:47:35;25.67;;;13.40;;
65879;SDS011;52661;51.364;6.054;2023-09-12T10:50:02;23.63;;;12.40;;
65879;SDS011;52661;51.364;6.054;2023-09-12T10:52:27;22.55;;;10.90;;
65879;SDS011;52661;51.364;6.054;2023-09-12T10:54:54;21.08;;;11.13;;
65879;SDS011;52661;51.364;6.054;2023-09-12T10:57:20;19.30;;;9.52;;
65879;SDS011;52661;51.364;6.054;2023-09-12T11:02:33;21.75;;;10.40;;
65879;SDS011;52661;51.364;6.054;2023-09-12T11:05:03;19.65;;;10.38;;
65879;SDS011;52661;51.364;6.054;2023-09-12T11:12:48;19.67;;;11.35;;
65879;SDS011;52661;51.364;6.054;2023-09-12T11:15:15;23.10;;;11.77;;
65879;SDS011;52661;51.364;6.054;2023-09-12T11:17:45;23.85;;;12.15;;
65879;SDS011;52661;51.364;6.054;2023-09-12T11:20:12;23.10;;;11.98;;
65879;SDS011;52661;51.364;6.054;2023-09-12T11:25:15;19.58;;;9.82;;
65879;SDS011;52661;51.364;6.054;2023-09-12T11:30:22;24.27;;;10.57;;
65879;SDS011;52661;51.364;6.054;2023-09-12T11:32:53;20.63;;;10.65;;
65879;SDS011;52661;51.364;6.054;2023-09-12T11:35:23;20.75;;;10.00;;
65879;SDS011;52661;51.364;6.054;2023-09-12T11:37:50;20.75;;;11.25;;
65879;SDS011;52661;51.364;6.054;2023-09-12T11:40:22;17.58;;;10.05;;
65879;SDS011;52661;51.364;6.054;2023-09-12T11:42:49;20.40;;;11.20;;
65879;SDS011;52661;51.364;6.054;2023-09-12T11:45:17;23.30;;;10.57;;
65879;SDS011;52661;51.364;6.054;2023-09-12T11:47:44;20.05;;;11.45;;
65879;SDS011;52661;51.364;6.054;2023-09-12T11:53:06;17.98;;;9.18;;
65879;SDS011;52661;51.364;6.054;2023-09-12T11:55:37;19.30;;;9.90;;
65879;SDS011;52661;51.364;6.054;2023-09-12T11:58:10;17.95;;;9.20;;
65879;SDS011;52661;51.364;6.054;2023-09-12T12:03:07;17.58;;;9.73;;
65879;SDS011;52661;51.364;6.054;2023-09-12T12:05:33;19.67;;;10.18;;
65879;SDS011;52661;51.364;6.054;2023-09-12T12:07:59;16.10;;;9.07;;
65879;SDS011;52661;51.364;6.054;2023-09-12T12:10:25;17.00;;;9.50;;
65879;SDS011;52661;51.364;6.054;2023-09-12T12:12:52;15.88;;;9.02;;
65879;SDS011;52661;51.364;6.054;2023-09-12T12:15:19;17.17;;;9.13;;
65879;SDS011;52661;51.364;6.054;2023-09-12T12:17:45;18.75;;;10.35;;
65879;SDS011;52661;51.364;6.054;2023-09-12T12:20:10;19.80;;;9.50;;
65879;SDS011;52661;51.364;6.054;2023-09-12T12:22:40;18.30;;;8.25;;
65879;SDS011;52661;51.364;6.054;2023-09-12T12:25:06;20.00;;;8.88;;
65879;SDS011;52661;51.364;6.054;2023-09-12T12:27:32;14.27;;;7.75;;
65879;SDS011;52661;51.364;6.054;2023-09-12T12:30:00;16.13;;;8.35;;
65879;SDS011;52661;51.364;6.054;2023-09-12T12:32:25;15.98;;;8.25;;
65879;SDS011;52661;51.364;6.054;2023-09-12T12:34:50;15.02;;;8.02;;
65879;SDS011;52661;51.364;6.054;2023-09-12T12:37:16;14.68;;;7.57;;
65879;SDS011;52661;51.364;6.054;2023-09-12T12:39:44;13.85;;;8.60;;
65879;SDS011;52661;51.364;6.054;2023-09-12T12:42:10;17.02;;;8.80;;
65879;SDS011;52661;51.364;6.054;2023-09-12T12:44:35;12.57;;;6.95;;
65879;SDS011;52661;51.364;6.054;2023-09-12T12:47:05;15.13;;;7.35;;
65879;SDS011;52661;51.364;6.054;2023-09-12T12:49:35;11.70;;;6.65;;
65879;SDS011;52661;51.364;6.054;2023-09-12T12:52:02;12.25;;;6.38;;
65879;SDS011;52661;51.364;6.054;2023-09-12T12:54:31;13.23;;;5.97;;
65879;SDS011;52661;51.364;6.054;2023-09-12T12:56:58;12.10;;;6.88;;
65879;SDS011;52661;51.364;6.054;2023-09-12T12:59:23;13.32;;;6.53;;
65879;SDS011;52661;51.364;6.054;2023-09-12T13:01:50;16.80;;;6.85;;
65879;SDS011;52661;51.364;6.054;2023-09-12T13:04:15;12.18;;;7.05;;
65879;SDS011;52661;51.364;6.054;2023-09-12T13:06:41;11.30;;;6.65;;
65879;SDS011;52661;51.364;6.054;2023-09-12T13:09:07;15.00;;;7.78;;
65879;SDS011;52661;51.364;6.054;2023-09-12T13:11:34;11.35;;;6.28;;
65879;SDS011;52661;51.364;6.054;2023-09-12T13:14:03;16.52;;;7.53;;
65879;SDS011;52661;51.364;6.054;2023-09-12T13:16:34;15.30;;;6.47;;
65879;SDS011;52661;51.364;6.054;2023-09-12T13:19:00;11.82;;;6.60;;
65879;SDS011;52661;51.364;6.054;2023-09-12T13:21:25;14.68;;;6.75;;
65879;SDS011;52661;51.364;6.054;2023-09-12T13:23:50;11.10;;;5.90;;
65879;SDS011;52661;51.364;6.054;2023-09-12T13:26:16;10.85;;;5.90;;
65879;SDS011;52661;51.364;6.054;2023-09-12T13:28:41;11.10;;;5.95;;
65879;SDS011;52661;51.364;6.054;2023-09-12T13:31:07;10.13;;;5.97;;
65879;SDS011;52661;51.364;6.054;2023-09-12T13:33:32;10.88;;;6.05;;
65879;SDS011;52661;51.364;6.054;2023-09-12T13:35:58;10.02;;;7.18;;
65879;SDS011;52661;51.364;6.054;2023-09-12T13:38:24;13.43;;;6.47;;
65879;SDS011;52661;51.364;6.054;2023-09-12T13:40:49;12.80;;;6.35;;
65879;SDS011;52661;51.364;6.054;2023-09-12T13:43:15;12.02;;;7.05;;
65879;SDS011;52661;51.364;6.054;2023-09-12T13:45:40;10.55;;;6.10;;
65879;SDS011;52661;51.364;6.054;2023-09-12T13:48:06;10.75;;;6.20;;
65879;SDS011;52661;51.364;6.054;2023-09-12T13:50:32;10.45;;;6.03;;
65879;SDS011;52661;51.364;6.054;2023-09-12T13:53:01;14.18;;;6.53;;
65879;SDS011;52661;51.364;6.054;2023-09-12T13:55:36;8.80;;;5.60;;
65879;SDS011;52661;51.364;6.054;2023-09-12T13:58:02;10.50;;;5.80;;
65879;SDS011;52661;51.364;6.054;2023-09-12T14:00:29;10.02;;;5.18;;
65879;SDS011;52661;51.364;6.054;2023-09-12T14:02:55;10.15;;;5.53;;
65879;SDS011;52661;51.364;6.054;2023-09-12T14:05:20;10.48;;;5.60;;
65879;SDS011;52661;51.364;6.054;2023-09-12T14:07:46;10.30;;;5.82;;
65879;SDS011;52661;51.364;6.054;2023-09-12T14:10:12;11.07;;;5.57;;
65879;SDS011;52661;51.364;6.054;2023-09-12T14:12:38;10.00;;;5.68;;
65879;SDS011;52661;51.364;6.054;2023-09-12T14:15:04;9.85;;;6.03;;
65879;SDS011;52661;51.364;6.054;2023-09-12T14:17:31;8.68;;;4.80;;
65879;SDS011;52661;51.364;6.054;2023-09-12T14:19:57;11.05;;;6.75;;
65879;SDS011;52661;51.364;6.054;2023-09-12T14:22:22;15.18;;;8.13;;
65879;SDS011;52661;51.364;6.054;2023-09-12T14:24:48;13.48;;;7.30;;
65879;SDS011;52661;51.364;6.054;2023-09-12T14:27:13;12.05;;;6.78;;
65879;SDS011;52661;51.364;6.054;2023-09-12T14:29:39;13.63;;;7.63;;
65879;SDS011;52661;51.364;6.054;2023-09-12T14:32:04;15.20;;;7.68;;
65879;SDS011;52661;51.364;6.054;2023-09-12T14:34:30;15.25;;;7.72;;
65879;SDS011;52661;51.364;6.054;2023-09-12T14:36:58;13.68;;;7.68;;
65879;SDS011;52661;51.364;6.054;2023-09-12T14:39:24;17.65;;;7.50;;
65879;SDS011;52661;51.364;6.054;2023-09-12T14:41:50;18.55;;;8.40;;
65879;SDS011;52661;51.364;6.054;2023-09-12T14:44:19;12.80;;;7.63;;
65879;SDS011;52661;51.364;6.054;2023-09-12T14:46:45;11.85;;;6.72;;
65879;SDS011;52661;51.364;6.054;2023-09-12T14:49:11;13.52;;;7.25;;
65879;SDS011;52661;51.364;6.054;2023-09-12T14:51:37;12.50;;;7.10;;
65879;SDS011;52661;51.364;6.054;2023-09-12T14:54:03;12.93;;;7.13;;
65879;SDS011;52661;51.364;6.054;2023-09-12T14:56:29;12.00;;;6.38;;